AirNav   Airventure
 
 1045 users online  

VG35 Walker Army Heliport
Fort Monroe, Virginia, USA

GOING TO FORT MONROE?


FAA INFORMATION EFFECTIVE 20 JULY 2017

Location

FAA Identifier: VG35
Lat/Long: 37-01-00.0000N / 076-18-00.0000W
37-01.000000N / 076-18.000000W
37.0166667 / -76.3000000
(estimated)
Elevation: 7 ft. / 2 m (estimated)
Variation: 10W (1990)
From city: 10 miles N of FORT MONROE, VA
Time zone: UTC -4 (UTC -5 during Standard Time)
Zip code: 23651

Heliport Operations

Heliport use: Private use. Permission required prior to landing
Activation date: 07/1992
Control tower: no
ARTCC: WASHINGTON CENTER
FSS: LEESBURG FLIGHT SERVICE STATION
Attendance: UNATNDD
OFFICIAL BUSINESS ONLY.
Segmented circle: no

Heliport Communications

WX ASOS at ORF (9 nm SE): PHONE 757-460-9348
WX ASOS at PHF (12 nm NW): PHONE 757-874-3682
WX AWOS-3 at PVG (16 nm SW): 118.375 (757-465-2175)
WX ASOS at NTU (17 nm SE): PHONE DSN 433-3619 or 757-433-3619

Nearby radio navigation aids

VOR radial/distance  VOR name  Freq  Var
ORFr334/8.9NORFOLK VORTAC116.9007W
CCVr226/24.6CAPE CHARLES VORTAC112.2010W
HCMr150/32.5HARCUM VORTAC108.8007W
FKNr071/38.7FRANKLIN VORTAC110.6009W

 
NDB name  Hdg/Dist  Freq  Var  ID
WAKEFIELD096/33.727409WAKQ .- -.- --.-

Heliport Services

Runway Information

Helipad H1

Dimensions: 35 x 35 ft. / 11 x 11 m
Surface: concrete
Traffic pattern: leftleft

Heliport Ownership and Management from official FAA records

Ownership: Privately-owned
Owner: DEPT OF ARMY HQ, DARRELL MILTON
HQ-TRA-DOC, ATTN: G-3-5-7, FLIGHT OPS
FT MONROE, VA 23651
Phone 757-788-3187
Manager: DARRELL MILTON
HQ-TRA-DOC, ATTN: G-3-5-7, FLIGHT OPS
FT MONROE, VA 23651
Phone 757-788-3187

Additional Remarks

HELICOPTER ONLY.
NUMEROUS BIRDS INVOF ARPT. DO NOT OVERFLY POST.
24 HOUR PPR FOR LDG: 757-788-3187.

Instrument Procedures

There are no published instrument procedures at VG35.

Some nearby airports with instrument procedures:

KNGU - Norfolk Naval Station (Chambers Field) (5 nm S)
KLFI - Langley Air Force Base (5 nm NW)
KORF - Norfolk International Airport (9 nm SE)
KPHF - Newport News/Williamsburg International Airport (12 nm NW)
KPVG - Hampton Roads Executive Airport (16 nm SW)
KFAF - Felker Army Airfield (16 nm NW)
KNTU - Oceana Naval Air Station (Apollo Soucek Field) (17 nm SE)
 
Loc | Ops | Rwys | IFR | FBO | Links
Com | Nav | Svcs | Stats | Notes


 
Area around VG35 (Walker Army Heliport)
 
Road maps at: MapQuest Bing Google
 
Aerial photo
No photo
 
Sectional chart

 
Airport distance calculator
Flying to Walker Army Heliport? Find the distance to fly.

From to VG35

Sunrise and sunset
Times for 23-Jul-2017
 Local
(UTC-4)
 Zulu
(UTC)
Morning civil twilight05:3509:35
Sunrise06:0410:04
Sunset20:1900:19
Evening civil twilight20:4900:49

Current date and time
Zulu (UTC)  23-Jul-2017 16:46:42
Local (UTC-4)  23-Jul-2017 12:46:42
 
METAR
KLFI 
4nm NW 
231558Z AUTO 25008KT 10SM CLR 32/25 A2982 RMK AO2 SLP105 T03200253 $
KNGU 
6nm S 
231559Z 28010KT 7SM FEW030 SCT190 BKN280 33/25 A2984 RMK AO2 SLP103 T03280250 $
KORF 
8nm SE 
231551Z 26009G14KT 10SM CLR 33/25 A2982 RMK AO2 SLP098 T03280250
KPHF 
12nm NW 
231554Z 24007KT 10SM CLR 32/24 A2982 RMK AO2 SLP098 T03170244
KPVG 
16nm SW 
231635Z AUTO 25005KT 10SM CLR 32/26 A2980 RMK AO1
KFAF 
16nm W 
231558Z AUTO 23004KT 10SM CLR 33/26 A2981 RMK AO2 SLP098 T03310256
KNTU 
18nm SE 
231556Z 25007G14KT 10SM FEW040 FEW080 SCT160 SCT280 33/25 A2981 RMK AO2 SLP097 T03280250
TAF
KLFI 
4nm NW 
230900Z 2309/2415 23012KT 9999 BKN045 QNH2977INS BECMG 2317/2318 28009KT 8000 -SHRA BR SCT025 BKN045 QNH2977INS TEMPO 2318/2403 19010G15KT 4800 -TSRA BKN020CB BECMG 2407/2408 24006KT 9999 NSW FEW015 SCT030 QNH2977INS TX32/2316Z TN27/2309Z
KNGU 
6nm S 
2315/2415 24008KT 9999 SCT040 SCT080 BKN250 QNH2978INS BECMG 2318/2320 26008KT 9999 VCTS SCT030CB SCT050 BKN150 QNH2978INS TEMPO 2318/2400 VRB20G35KT 4800 TSRA BKN030CB OVC050 BECMG 2400/2402 23007KT 9999 NSW SCT030 BKN150 QNH2974INS T35/2320Z T27/2410Z FN00152
KORF 
8nm SE 
231124Z 2312/2412 21011KT P6SM SKC FM231700 25009KT P6SM SCT150 FM232100 22008KT P6SM VCSH BKN100 FM240300 22009KT P6SM SCT100
KPHF 
12nm NW 
231124Z 2312/2412 22011KT P6SM SKC FM232000 23009KT P6SM VCSH BKN120 FM240300 22009KT P6SM SCT100
KNTU 
18nm SE 
2315/2415 25012KT 9999 SCT040 SCT080 BKN250 QNH2977INS BECMG 2318/2320 26012KT 9999 VCTS SCT030CB SCT050 BKN150 QNH2977INS TEMPO 2318/2400 VRB20G35KT 4800 TSRA BKN030CB OVC050 BECMG 2400/2402 23010KT SCT030 9999 NSW SCT040 BKN120 BKN250 QNH2975INS T35/2320Z T26/2410Z COR 1521 FN00152
NOTAMs
Click for the latest NOTAMs
NOTAMs are issued by the DoD/FAA and will open in a separate window not controlled by AirNav.

 

 
 

Would you like to see your business listed on this page?

 If your business provides an interesting product or service to pilots, flight crews, aircraft, or users of the Walker Army Heliport, you should consider listing it here.  To start the listing process, click on the button below
 
Add a business
 

Other Pages about Walker Army Heliport

Update a link
 
Copyright © AirNav, LLC. All rights reserved. Privacy Policy  Contact